sensor_id;sensor_type;location;lat;lon;timestamp;P1;durP1;ratioP1;P2;durP2;ratioP2
43152;SDS011;28756;49.064;9.290;2022-07-19T00:02:06;2.22;;;1.35;;
43152;SDS011;28756;49.064;9.290;2022-07-19T00:04:32;2.17;;;1.30;;
43152;SDS011;28756;49.064;9.290;2022-07-19T00:06:59;4.30;;;1.50;;
43152;SDS011;28756;49.064;9.290;2022-07-19T00:09:25;1.83;;;1.00;;
43152;SDS011;28756;49.064;9.290;2022-07-19T00:11:51;3.08;;;1.40;;
43152;SDS011;28756;49.064;9.290;2022-07-19T00:14:19;1.90;;;1.30;;
43152;SDS011;28756;49.064;9.290;2022-07-19T00:16:45;1.77;;;1.20;;
43152;SDS011;28756;49.064;9.290;2022-07-19T00:19:11;1.35;;;1.10;;
43152;SDS011;28756;49.064;9.290;2022-07-19T00:21:37;3.20;;;1.02;;
43152;SDS011;28756;49.064;9.290;2022-07-19T00:24:04;1.77;;;1.00;;
43152;SDS011;28756;49.064;9.290;2022-07-19T00:26:30;1.48;;;0.80;;
43152;SDS011;28756;49.064;9.290;2022-07-19T00:28:56;2.88;;;1.23;;
43152;SDS011;28756;49.064;9.290;2022-07-19T00:31:25;2.47;;;1.10;;
43152;SDS011;28756;49.064;9.290;2022-07-19T00:33:58;1.63;;;1.08;;
43152;SDS011;28756;49.064;9.290;2022-07-19T00:36:26;1.35;;;1.00;;
43152;SDS011;28756;49.064;9.290;2022-07-19T00:38:52;1.33;;;0.93;;
43152;SDS011;28756;49.064;9.290;2022-07-19T00:41:18;1.45;;;1.10;;
43152;SDS011;28756;49.064;9.290;2022-07-19T00:43:44;3.45;;;1.05;;
43152;SDS011;28756;49.064;9.290;2022-07-19T00:46:11;1.10;;;1.00;;
43152;SDS011;28756;49.064;9.290;2022-07-19T00:48:48;1.13;;;0.95;;
43152;SDS011;28756;49.064;9.290;2022-07-19T00:51:18;1.75;;;1.20;;
43152;SDS011;28756;49.064;9.290;2022-07-19T00:53:44;2.45;;;1.30;;
43152;SDS011;28756;49.064;9.290;2022-07-19T00:56:11;1.00;;;0.90;;
43152;SDS011;28756;49.064;9.290;2022-07-19T00:58:38;1.63;;;1.00;;
43152;SDS011;28756;49.064;9.290;2022-07-19T01:01:06;1.50;;;1.10;;
43152;SDS011;28756;49.064;9.290;2022-07-19T01:03:35;2.75;;;1.00;;
43152;SDS011;28756;49.064;9.290;2022-07-19T01:06:04;3.25;;;1.30;;
43152;SDS011;28756;49.064;9.290;2022-07-19T01:08:31;1.25;;;1.13;;
43152;SDS011;28756;49.064;9.290;2022-07-19T01:10:58;1.52;;;0.98;;
43152;SDS011;28756;49.064;9.290;2022-07-19T01:13:24;3.50;;;1.33;;
43152;SDS011;28756;49.064;9.290;2022-07-19T01:15:50;2.28;;;1.02;;
43152;SDS011;28756;49.064;9.290;2022-07-19T01:18:16;1.20;;;1.10;;
43152;SDS011;28756;49.064;9.290;2022-07-19T01:20:42;1.40;;;0.90;;
43152;SDS011;28756;49.064;9.290;2022-07-19T01:23:11;2.60;;;1.20;;
43152;SDS011;28756;49.064;9.290;2022-07-19T01:25:37;3.95;;;1.73;;
43152;SDS011;28756;49.064;9.290;2022-07-19T01:28:04;1.63;;;1.10;;
43152;SDS011;28756;49.064;9.290;2022-07-19T01:30:32;1.60;;;1.15;;
43152;SDS011;28756;49.064;9.290;2022-07-19T01:32:59;2.63;;;1.23;;
43152;SDS011;28756;49.064;9.290;2022-07-19T01:35:25;2.75;;;1.30;;
43152;SDS011;28756;49.064;9.290;2022-07-19T01:37:52;1.50;;;1.10;;
43152;SDS011;28756;49.064;9.290;2022-07-19T01:40:18;1.40;;;1.02;;
43152;SDS011;28756;49.064;9.290;2022-07-19T01:42:45;1.63;;;0.95;;
43152;SDS011;28756;49.064;9.290;2022-07-19T01:45:13;1.33;;;0.93;;
43152;SDS011;28756;49.064;9.290;2022-07-19T01:47:39;3.95;;;1.23;;
43152;SDS011;28756;49.064;9.290;2022-07-19T01:50:08;4.00;;;1.05;;
43152;SDS011;28756;49.064;9.290;2022-07-19T01:52:38;4.47;;;1.10;;
43152;SDS011;28756;49.064;9.290;2022-07-19T01:55:04;2.45;;;1.20;;
43152;SDS011;28756;49.064;9.290;2022-07-19T01:57:31;1.85;;;1.08;;
43152;SDS011;28756;49.064;9.290;2022-07-19T01:59:57;1.58;;;1.10;;
43152;SDS011;28756;49.064;9.290;2022-07-19T02:02:23;0.90;;;0.85;;
43152;SDS011;28756;49.064;9.290;2022-07-19T02:04:49;2.85;;;1.17;;
43152;SDS011;28756;49.064;9.290;2022-07-19T02:07:17;1.63;;;1.20;;
43152;SDS011;28756;49.064;9.290;2022-07-19T02:09:46;1.60;;;1.00;;
43152;SDS011;28756;49.064;9.290;2022-07-19T02:12:14;3.05;;;1.13;;
43152;SDS011;28756;49.064;9.290;2022-07-19T02:14:40;0.90;;;0.90;;
43152;SDS011;28756;49.064;9.290;2022-07-19T02:17:06;1.02;;;0.93;;
43152;SDS011;28756;49.064;9.290;2022-07-19T02:19:32;1.30;;;1.00;;
43152;SDS011;28756;49.064;9.290;2022-07-19T02:22:01;1.55;;;1.02;;
43152;SDS011;28756;49.064;9.290;2022-07-19T02:24:27;1.00;;;0.90;;
43152;SDS011;28756;49.064;9.290;2022-07-19T02:26:55;1.05;;;0.95;;
43152;SDS011;28756;49.064;9.290;2022-07-19T02:29:21;2.85;;;1.02;;
43152;SDS011;28756;49.064;9.290;2022-07-19T02:31:50;1.77;;;0.93;;
43152;SDS011;28756;49.064;9.290;2022-07-19T02:34:16;3.90;;;1.15;;
43152;SDS011;28756;49.064;9.290;2022-07-19T02:36:42;1.20;;;1.05;;
43152;SDS011;28756;49.064;9.290;2022-07-19T02:39:08;1.20;;;1.10;;
43152;SDS011;28756;49.064;9.290;2022-07-19T02:41:34;2.20;;;1.02;;
43152;SDS011;28756;49.064;9.290;2022-07-19T02:44:00;1.45;;;1.20;;
43152;SDS011;28756;49.064;9.290;2022-07-19T02:46:26;1.88;;;1.15;;
43152;SDS011;28756;49.064;9.290;2022-07-19T02:48:51;1.92;;;1.13;;
43152;SDS011;28756;49.064;9.290;2022-07-19T02:51:17;1.50;;;1.10;;
43152;SDS011;28756;49.064;9.290;2022-07-19T02:53:43;3.08;;;1.20;;
43152;SDS011;28756;49.064;9.290;2022-07-19T02:56:09;2.38;;;1.10;;
43152;SDS011;28756;49.064;9.290;2022-07-19T02:58:35;2.17;;;1.20;;
43152;SDS011;28756;49.064;9.290;2022-07-19T03:01:00;2.05;;;1.02;;
43152;SDS011;28756;49.064;9.290;2022-07-19T03:03:26;2.47;;;1.15;;
43152;SDS011;28756;49.064;9.290;2022-07-19T03:06:12;4.50;;;0.90;;
43152;SDS011;28756;49.064;9.290;2022-07-19T03:08:43;1.92;;;1.20;;
43152;SDS011;28756;49.064;9.290;2022-07-19T03:11:11;2.40;;;1.48;;
43152;SDS011;28756;49.064;9.290;2022-07-19T03:13:38;1.17;;;1.00;;
43152;SDS011;28756;49.064;9.290;2022-07-19T03:16:04;2.10;;;1.35;;
43152;SDS011;28756;49.064;9.290;2022-07-19T03:18:30;1.77;;;1.38;;
43152;SDS011;28756;49.064;9.290;2022-07-19T03:20:56;2.60;;;1.17;;
43152;SDS011;28756;49.064;9.290;2022-07-19T03:23:24;1.42;;;1.33;;
43152;SDS011;28756;49.064;9.290;2022-07-19T03:25:56;1.98;;;1.20;;
43152;SDS011;28756;49.064;9.290;2022-07-19T03:28:21;1.63;;;1.15;;
43152;SDS011;28756;49.064;9.290;2022-07-19T03:30:47;3.78;;;1.23;;
43152;SDS011;28756;49.064;9.290;2022-07-19T03:33:13;2.15;;;1.20;;
43152;SDS011;28756;49.064;9.290;2022-07-19T03:35:41;2.53;;;1.10;;
43152;SDS011;28756;49.064;9.290;2022-07-19T03:38:09;1.10;;;1.00;;
43152;SDS011;28756;49.064;9.290;2022-07-19T03:40:39;2.85;;;1.20;;
43152;SDS011;28756;49.064;9.290;2022-07-19T03:43:05;1.83;;;0.98;;
43152;SDS011;28756;49.064;9.290;2022-07-19T03:45:32;1.60;;;0.95;;
43152;SDS011;28756;49.064;9.290;2022-07-19T03:47:58;2.78;;;1.13;;
43152;SDS011;28756;49.064;9.290;2022-07-19T03:50:25;1.30;;;1.20;;
43152;SDS011;28756;49.064;9.290;2022-07-19T03:52:51;1.42;;;1.10;;
43152;SDS011;28756;49.064;9.290;2022-07-19T03:55:17;1.60;;;1.27;;
43152;SDS011;28756;49.064;9.290;2022-07-19T03:57:43;1.60;;;1.10;;
43152;SDS011;28756;49.064;9.290;2022-07-19T04:00:09;3.20;;;1.50;;
43152;SDS011;28756;49.064;9.290;2022-07-19T04:02:36;1.50;;;1.10;;
43152;SDS011;28756;49.064;9.290;2022-07-19T04:05:04;1.35;;;1.20;;
43152;SDS011;28756;49.064;9.290;2022-07-19T04:07:30;1.70;;;1.20;;
43152;SDS011;28756;49.064;9.290;2022-07-19T04:09:56;1.42;;;1.10;;
43152;SDS011;28756;49.064;9.290;2022-07-19T04:12:22;1.60;;;1.17;;
43152;SDS011;28756;49.064;9.290;2022-07-19T04:14:48;1.30;;;1.00;;
43152;SDS011;28756;49.064;9.290;2022-07-19T04:17:14;1.35;;;1.02;;
43152;SDS011;28756;49.064;9.290;2022-07-19T04:19:40;2.22;;;1.20;;
43152;SDS011;28756;49.064;9.290;2022-07-19T04:22:05;1.60;;;1.20;;
43152;SDS011;28756;49.064;9.290;2022-07-19T04:24:31;1.42;;;1.20;;
43152;SDS011;28756;49.064;9.290;2022-07-19T04:27:10;1.40;;;1.20;;
43152;SDS011;28756;49.064;9.290;2022-07-19T04:29:36;1.42;;;1.30;;
43152;SDS011;28756;49.064;9.290;2022-07-19T04:32:02;3.40;;;1.48;;
43152;SDS011;28756;49.064;9.290;2022-07-19T04:34:31;1.42;;;1.10;;
43152;SDS011;28756;49.064;9.290;2022-07-19T04:36:59;2.05;;;1.15;;
43152;SDS011;28756;49.064;9.290;2022-07-19T04:39:25;2.00;;;1.10;;
43152;SDS011;28756;49.064;9.290;2022-07-19T04:41:51;1.48;;;1.20;;
43152;SDS011;28756;49.064;9.290;2022-07-19T04:44:26;1.40;;;1.20;;
43152;SDS011;28756;49.064;9.290;2022-07-19T04:46:52;1.20;;;1.10;;
43152;SDS011;28756;49.064;9.290;2022-07-19T04:49:18;2.20;;;1.35;;
43152;SDS011;28756;49.064;9.290;2022-07-19T04:51:44;2.28;;;1.27;;
43152;SDS011;28756;49.064;9.290;2022-07-19T04:54:12;0.95;;;0.93;;
43152;SDS011;28756;49.064;9.290;2022-07-19T04:56:41;2.17;;;1.10;;
43152;SDS011;28756;49.064;9.290;2022-07-19T04:59:15;2.05;;;1.10;;
43152;SDS011;28756;49.064;9.290;2022-07-19T05:01:40;1.40;;;1.20;;
43152;SDS011;28756;49.064;9.290;2022-07-19T05:04:06;1.52;;;1.33;;
43152;SDS011;28756;49.064;9.290;2022-07-19T05:06:32;1.77;;;1.23;;
43152;SDS011;28756;49.064;9.290;2022-07-19T05:08:58;3.00;;;1.25;;
43152;SDS011;28756;49.064;9.290;2022-07-19T05:11:24;2.22;;;1.35;;
43152;SDS011;28756;49.064;9.290;2022-07-19T05:13:50;2.10;;;1.40;;
43152;SDS011;28756;49.064;9.290;2022-07-19T05:16:18;2.75;;;1.40;;
43152;SDS011;28756;49.064;9.290;2022-07-19T05:18:44;2.38;;;1.35;;
43152;SDS011;28756;49.064;9.290;2022-07-19T05:21:13;4.15;;;1.75;;
43152;SDS011;28756;49.064;9.290;2022-07-19T05:23:44;1.60;;;1.50;;
43152;SDS011;28756;49.064;9.290;2022-07-19T05:26:13;2.72;;;1.55;;
43152;SDS011;28756;49.064;9.290;2022-07-19T05:28:45;3.35;;;1.30;;
43152;SDS011;28756;49.064;9.290;2022-07-19T05:31:14;2.53;;;1.50;;
43152;SDS011;28756;49.064;9.290;2022-07-19T05:33:43;2.10;;;1.42;;
43152;SDS011;28756;49.064;9.290;2022-07-19T05:39:54;1.67;;;1.35;;
43152;SDS011;28756;49.064;9.290;2022-07-19T05:42:22;1.50;;;1.30;;
43152;SDS011;28756;49.064;9.290;2022-07-19T05:44:51;2.22;;;1.40;;
43152;SDS011;28756;49.064;9.290;2022-07-19T05:47:16;2.22;;;1.35;;
43152;SDS011;28756;49.064;9.290;2022-07-19T05:49:43;4.40;;;1.77;;
43152;SDS011;28756;49.064;9.290;2022-07-19T05:52:14;5.05;;;1.60;;
43152;SDS011;28756;49.064;9.290;2022-07-19T05:54:40;3.15;;;1.50;;
43152;SDS011;28756;49.064;9.290;2022-07-19T05:57:09;3.13;;;1.45;;
43152;SDS011;28756;49.064;9.290;2022-07-19T05:59:35;2.88;;;1.50;;
43152;SDS011;28756;49.064;9.290;2022-07-19T06:02:01;2.00;;;1.50;;
43152;SDS011;28756;49.064;9.290;2022-07-19T06:04:28;4.05;;;2.00;;
43152;SDS011;28756;49.064;9.290;2022-07-19T06:06:54;2.22;;;1.58;;
43152;SDS011;28756;49.064;9.290;2022-07-19T06:09:19;4.78;;;1.50;;
43152;SDS011;28756;49.064;9.290;2022-07-19T06:11:48;3.10;;;1.55;;
43152;SDS011;28756;49.064;9.290;2022-07-19T06:14:21;3.05;;;1.75;;
43152;SDS011;28756;49.064;9.290;2022-07-19T06:16:47;4.15;;;1.73;;
43152;SDS011;28756;49.064;9.290;2022-07-19T06:19:13;3.20;;;1.48;;
43152;SDS011;28756;49.064;9.290;2022-07-19T06:21:39;3.17;;;1.50;;
43152;SDS011;28756;49.064;9.290;2022-07-19T06:24:05;6.53;;;1.80;;
43152;SDS011;28756;49.064;9.290;2022-07-19T06:26:31;1.80;;;1.40;;
43152;SDS011;28756;49.064;9.290;2022-07-19T06:28:56;1.95;;;1.42;;
43152;SDS011;28756;49.064;9.290;2022-07-19T06:31:22;2.22;;;1.55;;
43152;SDS011;28756;49.064;9.290;2022-07-19T06:33:49;4.25;;;1.25;;
43152;SDS011;28756;49.064;9.290;2022-07-19T06:36:16;1.63;;;1.33;;
43152;SDS011;28756;49.064;9.290;2022-07-19T06:38:43;2.88;;;1.35;;
43152;SDS011;28756;49.064;9.290;2022-07-19T06:41:10;1.77;;;1.20;;
43152;SDS011;28756;49.064;9.290;2022-07-19T06:43:37;3.88;;;1.48;;
43152;SDS011;28756;49.064;9.290;2022-07-19T06:46:04;1.92;;;1.30;;
43152;SDS011;28756;49.064;9.290;2022-07-19T06:48:30;2.00;;;1.30;;
43152;SDS011;28756;49.064;9.290;2022-07-19T06:50:56;1.20;;;1.10;;
43152;SDS011;28756;49.064;9.290;2022-07-19T06:53:22;4.03;;;1.27;;
43152;SDS011;28756;49.064;9.290;2022-07-19T06:55:48;4.43;;;1.40;;
43152;SDS011;28756;49.064;9.290;2022-07-19T06:58:14;2.35;;;1.30;;
43152;SDS011;28756;49.064;9.290;2022-07-19T07:00:40;2.70;;;1.27;;
43152;SDS011;28756;49.064;9.290;2022-07-19T07:03:06;3.15;;;1.10;;
43152;SDS011;28756;49.064;9.290;2022-07-19T07:05:34;3.53;;;1.25;;
43152;SDS011;28756;49.064;9.290;2022-07-19T07:08:01;3.70;;;1.67;;
43152;SDS011;28756;49.064;9.290;2022-07-19T07:10:27;2.00;;;1.50;;
43152;SDS011;28756;49.064;9.290;2022-07-19T07:12:52;1.58;;;1.30;;
43152;SDS011;28756;49.064;9.290;2022-07-19T07:15:18;4.78;;;1.20;;
43152;SDS011;28756;49.064;9.290;2022-07-19T07:17:44;3.08;;;1.40;;
43152;SDS011;28756;49.064;9.290;2022-07-19T07:20:10;1.92;;;1.50;;
43152;SDS011;28756;49.064;9.290;2022-07-19T07:22:36;3.00;;;1.80;;
43152;SDS011;28756;49.064;9.290;2022-07-19T07:25:02;3.08;;;1.60;;
43152;SDS011;28756;49.064;9.290;2022-07-19T07:27:30;3.47;;;1.40;;
43152;SDS011;28756;49.064;9.290;2022-07-19T07:29:56;2.08;;;1.40;;
43152;SDS011;28756;49.064;9.290;2022-07-19T07:32:22;2.17;;;1.20;;
43152;SDS011;28756;49.064;9.290;2022-07-19T07:34:47;1.92;;;1.20;;
43152;SDS011;28756;49.064;9.290;2022-07-19T07:37:13;3.67;;;1.70;;
43152;SDS011;28756;49.064;9.290;2022-07-19T07:39:39;5.00;;;1.45;;
43152;SDS011;28756;49.064;9.290;2022-07-19T07:42:05;1.58;;;1.05;;
43152;SDS011;28756;49.064;9.290;2022-07-19T07:44:31;2.38;;;1.20;;
43152;SDS011;28756;49.064;9.290;2022-07-19T07:46:57;2.80;;;1.30;;
43152;SDS011;28756;49.064;9.290;2022-07-19T07:49:23;1.63;;;1.20;;
43152;SDS011;28756;49.064;9.290;2022-07-19T07:51:49;6.07;;;1.50;;
43152;SDS011;28756;49.064;9.290;2022-07-19T07:54:15;2.00;;;1.30;;
43152;SDS011;28756;49.064;9.290;2022-07-19T07:56:41;3.28;;;1.40;;
43152;SDS011;28756;49.064;9.290;2022-07-19T07:59:07;6.78;;;2.05;;
43152;SDS011;28756;49.064;9.290;2022-07-19T08:01:33;3.35;;;1.50;;
43152;SDS011;28756;49.064;9.290;2022-07-19T08:04:00;2.30;;;1.30;;
43152;SDS011;28756;49.064;9.290;2022-07-19T08:06:25;2.03;;;1.40;;
43152;SDS011;28756;49.064;9.290;2022-07-19T08:08:51;2.50;;;1.38;;
43152;SDS011;28756;49.064;9.290;2022-07-19T08:11:17;1.23;;;1.10;;
43152;SDS011;28756;49.064;9.290;2022-07-19T08:13:43;3.63;;;1.23;;
43152;SDS011;28756;49.064;9.290;2022-07-19T08:16:08;5.80;;;1.27;;
43152;SDS011;28756;49.064;9.290;2022-07-19T08:18:34;1.10;;;1.00;;
43152;SDS011;28756;49.064;9.290;2022-07-19T08:21:00;1.35;;;0.93;;
43152;SDS011;28756;49.064;9.290;2022-07-19T08:23:25;1.98;;;1.00;;
43152;SDS011;28756;49.064;9.290;2022-07-19T08:25:51;3.58;;;1.05;;
43152;SDS011;28756;49.064;9.290;2022-07-19T08:28:17;2.33;;;1.15;;
43152;SDS011;28756;49.064;9.290;2022-07-19T08:30:43;1.30;;;1.15;;
43152;SDS011;28756;49.064;9.290;2022-07-19T08:33:09;2.65;;;0.95;;
43152;SDS011;28756;49.064;9.290;2022-07-19T08:35:35;1.55;;;1.10;;
43152;SDS011;28756;49.064;9.290;2022-07-19T08:38:01;2.70;;;1.10;;
43152;SDS011;28756;49.064;9.290;2022-07-19T08:40:27;2.08;;;1.17;;
43152;SDS011;28756;49.064;9.290;2022-07-19T08:42:54;2.05;;;1.27;;
43152;SDS011;28756;49.064;9.290;2022-07-19T08:45:23;2.47;;;1.00;;
43152;SDS011;28756;49.064;9.290;2022-07-19T08:47:52;1.40;;;0.90;;
43152;SDS011;28756;49.064;9.290;2022-07-19T08:50:19;1.42;;;1.10;;
43152;SDS011;28756;49.064;9.290;2022-07-19T08:52:45;1.77;;;1.30;;
43152;SDS011;28756;49.064;9.290;2022-07-19T08:55:12;1.13;;;0.98;;
43152;SDS011;28756;49.064;9.290;2022-07-19T08:57:38;2.50;;;1.00;;
43152;SDS011;28756;49.064;9.290;2022-07-19T09:00:22;2.33;;;1.17;;
43152;SDS011;28756;49.064;9.290;2022-07-19T09:02:54;2.75;;;1.10;;
43152;SDS011;28756;49.064;9.290;2022-07-19T09:05:27;1.88;;;1.10;;
43152;SDS011;28756;49.064;9.290;2022-07-19T09:08:04;2.55;;;1.15;;
43152;SDS011;28756;49.064;9.290;2022-07-19T09:10:45;2.08;;;0.93;;
43152;SDS011;28756;49.064;9.290;2022-07-19T09:13:32;0.90;;;0.90;;
43152;SDS011;28756;49.064;9.290;2022-07-19T09:15:58;1.27;;;1.17;;
43152;SDS011;28756;49.064;9.290;2022-07-19T09:18:25;2.03;;;1.20;;
43152;SDS011;28756;49.064;9.290;2022-07-19T09:20:57;1.70;;;1.10;;
43152;SDS011;28756;49.064;9.290;2022-07-19T09:23:29;1.35;;;1.23;;
43152;SDS011;28756;49.064;9.290;2022-07-19T09:25:57;1.20;;;1.00;;
43152;SDS011;28756;49.064;9.290;2022-07-19T09:28:29;1.42;;;0.95;;
43152;SDS011;28756;49.064;9.290;2022-07-19T09:31:03;4.50;;;1.10;;
43152;SDS011;28756;49.064;9.290;2022-07-19T09:33:36;1.23;;;0.95;;
43152;SDS011;28756;49.064;9.290;2022-07-19T09:36:15;4.85;;;1.10;;
43152;SDS011;28756;49.064;9.290;2022-07-19T09:38:41;2.45;;;1.20;;
43152;SDS011;28756;49.064;9.290;2022-07-19T09:41:20;1.77;;;1.17;;
43152;SDS011;28756;49.064;9.290;2022-07-19T09:46:32;1.20;;;1.10;;
43152;SDS011;28756;49.064;9.290;2022-07-19T09:49:15;1.65;;;1.10;;
43152;SDS011;28756;49.064;9.290;2022-07-19T09:51:54;2.15;;;1.35;;
43152;SDS011;28756;49.064;9.290;2022-07-19T09:54:36;1.17;;;1.08;;
43152;SDS011;28756;49.064;9.290;2022-07-19T09:57:07;1.63;;;0.90;;
43152;SDS011;28756;49.064;9.290;2022-07-19T09:59:47;1.30;;;1.02;;
43152;SDS011;28756;49.064;9.290;2022-07-19T10:02:22;1.75;;;1.00;;
43152;SDS011;28756;49.064;9.290;2022-07-19T10:04:50;1.02;;;1.02;;
43152;SDS011;28756;49.064;9.290;2022-07-19T10:07:23;2.47;;;1.20;;
43152;SDS011;28756;49.064;9.290;2022-07-19T10:09:50;0.90;;;0.90;;
43152;SDS011;28756;49.064;9.290;2022-07-19T10:12:16;1.30;;;1.10;;
43152;SDS011;28756;49.064;9.290;2022-07-19T10:14:42;3.30;;;1.17;;
43152;SDS011;28756;49.064;9.290;2022-07-19T10:17:30;2.70;;;1.10;;
43152;SDS011;28756;49.064;9.290;2022-07-19T10:20:09;1.48;;;1.30;;
43152;SDS011;28756;49.064;9.290;2022-07-19T10:22:47;1.08;;;0.98;;
43152;SDS011;28756;49.064;9.290;2022-07-19T10:25:36;1.13;;;1.02;;
43152;SDS011;28756;49.064;9.290;2022-07-19T10:28:29;1.27;;;1.10;;
43152;SDS011;28756;49.064;9.290;2022-07-19T10:31:27;2.20;;;1.20;;
43152;SDS011;28756;49.064;9.290;2022-07-19T10:34:09;1.98;;;1.20;;
43152;SDS011;28756;49.064;9.290;2022-07-19T10:36:47;1.25;;;1.05;;
43152;SDS011;28756;49.064;9.290;2022-07-19T10:39:20;3.58;;;1.30;;
43152;SDS011;28756;49.064;9.290;2022-07-19T10:50:52;2.47;;;1.23;;
43152;SDS011;28756;49.064;9.290;2022-07-19T10:56:41;3.40;;;1.30;;
43152;SDS011;28756;49.064;9.290;2022-07-19T10:59:32;2.47;;;1.42;;
43152;SDS011;28756;49.064;9.290;2022-07-19T11:02:20;2.03;;;1.40;;
43152;SDS011;28756;49.064;9.290;2022-07-19T11:04:52;1.58;;;1.38;;
43152;SDS011;28756;49.064;9.290;2022-07-19T11:07:22;1.98;;;1.63;;
43152;SDS011;28756;49.064;9.290;2022-07-19T11:09:57;2.38;;;1.40;;
43152;SDS011;28756;49.064;9.290;2022-07-19T11:12:31;1.77;;;1.40;;
43152;SDS011;28756;49.064;9.290;2022-07-19T11:15:14;3.85;;;1.60;;
43152;SDS011;28756;49.064;9.290;2022-07-19T11:17:56;6.07;;;1.88;;
43152;SDS011;28756;49.064;9.290;2022-07-19T11:20:32;1.95;;;1.52;;
43152;SDS011;28756;49.064;9.290;2022-07-19T11:23:02;2.53;;;1.48;;
43152;SDS011;28756;49.064;9.290;2022-07-19T11:25:42;1.63;;;1.42;;
43152;SDS011;28756;49.064;9.290;2022-07-19T11:28:24;3.70;;;1.73;;
43152;SDS011;28756;49.064;9.290;2022-07-19T11:30:51;2.60;;;1.60;;
43152;SDS011;28756;49.064;9.290;2022-07-19T11:33:23;5.53;;;1.63;;
43152;SDS011;28756;49.064;9.290;2022-07-19T11:35:59;3.13;;;1.88;;
43152;SDS011;28756;49.064;9.290;2022-07-19T11:39:01;1.85;;;1.40;;
43152;SDS011;28756;49.064;9.290;2022-07-19T11:41:45;1.25;;;1.15;;
43152;SDS011;28756;49.064;9.290;2022-07-19T11:44:27;2.35;;;1.63;;
43152;SDS011;28756;49.064;9.290;2022-07-19T11:47:04;2.25;;;1.50;;
43152;SDS011;28756;49.064;9.290;2022-07-19T11:49:40;3.00;;;1.60;;
43152;SDS011;28756;49.064;9.290;2022-07-19T11:52:13;2.13;;;1.52;;
43152;SDS011;28756;49.064;9.290;2022-07-19T11:54:59;4.35;;;1.80;;
43152;SDS011;28756;49.064;9.290;2022-07-19T11:57:37;3.53;;;1.80;;
43152;SDS011;28756;49.064;9.290;2022-07-19T12:00:09;1.52;;;1.40;;
43152;SDS011;28756;49.064;9.290;2022-07-19T12:02:51;1.98;;;1.23;;
43152;SDS011;28756;49.064;9.290;2022-07-19T12:05:37;4.50;;;1.55;;
43152;SDS011;28756;49.064;9.290;2022-07-19T12:08:08;5.30;;;1.50;;
43152;SDS011;28756;49.064;9.290;2022-07-19T12:10:37;1.80;;;1.30;;
43152;SDS011;28756;49.064;9.290;2022-07-19T12:13:32;1.90;;;1.55;;
43152;SDS011;28756;49.064;9.290;2022-07-19T12:16:06;1.88;;;1.40;;
43152;SDS011;28756;49.064;9.290;2022-07-19T12:24:08;2.58;;;1.40;;
43152;SDS011;28756;49.064;9.290;2022-07-19T12:29:31;2.53;;;1.80;;
43152;SDS011;28756;49.064;9.290;2022-07-19T12:32:14;2.03;;;1.45;;
43152;SDS011;28756;49.064;9.290;2022-07-19T12:37:36;2.13;;;1.30;;
43152;SDS011;28756;49.064;9.290;2022-07-19T12:40:10;2.70;;;2.00;;
43152;SDS011;28756;49.064;9.290;2022-07-19T12:45:13;4.18;;;1.92;;
43152;SDS011;28756;49.064;9.290;2022-07-19T12:47:40;2.88;;;1.65;;
43152;SDS011;28756;49.064;9.290;2022-07-19T12:50:08;2.03;;;1.80;;
43152;SDS011;28756;49.064;9.290;2022-07-19T12:52:44;3.83;;;1.92;;
43152;SDS011;28756;49.064;9.290;2022-07-19T12:55:09;3.83;;;2.10;;
43152;SDS011;28756;49.064;9.290;2022-07-19T12:57:35;3.17;;;2.40;;
43152;SDS011;28756;49.064;9.290;2022-07-19T13:00:02;3.35;;;2.22;;
43152;SDS011;28756;49.064;9.290;2022-07-19T13:02:29;1.55;;;1.38;;
43152;SDS011;28756;49.064;9.290;2022-07-19T13:04:55;1.98;;;1.52;;
43152;SDS011;28756;49.064;9.290;2022-07-19T13:07:21;2.60;;;1.60;;
43152;SDS011;28756;49.064;9.290;2022-07-19T13:09:47;5.63;;;1.80;;
43152;SDS011;28756;49.064;9.290;2022-07-19T13:12:13;3.00;;;1.70;;
43152;SDS011;28756;49.064;9.290;2022-07-19T13:14:38;1.92;;;1.55;;
43152;SDS011;28756;49.064;9.290;2022-07-19T13:17:05;2.45;;;1.70;;
43152;SDS011;28756;49.064;9.290;2022-07-19T13:19:31;5.18;;;1.75;;
43152;SDS011;28756;49.064;9.290;2022-07-19T13:21:57;1.92;;;1.55;;
43152;SDS011;28756;49.064;9.290;2022-07-19T13:24:23;3.08;;;1.80;;
43152;SDS011;28756;49.064;9.290;2022-07-19T13:26:49;2.75;;;1.95;;
43152;SDS011;28756;49.064;9.290;2022-07-19T13:29:15;5.07;;;1.70;;
43152;SDS011;28756;49.064;9.290;2022-07-19T13:31:41;3.30;;;1.85;;
43152;SDS011;28756;49.064;9.290;2022-07-19T13:34:08;2.83;;;1.73;;
43152;SDS011;28756;49.064;9.290;2022-07-19T13:36:34;6.45;;;1.65;;
43152;SDS011;28756;49.064;9.290;2022-07-19T13:38:59;3.08;;;2.00;;
43152;SDS011;28756;49.064;9.290;2022-07-19T13:41:25;3.97;;;2.15;;
43152;SDS011;28756;49.064;9.290;2022-07-19T13:43:51;2.28;;;1.67;;
43152;SDS011;28756;49.064;9.290;2022-07-19T13:46:18;3.97;;;2.00;;
43152;SDS011;28756;49.064;9.290;2022-07-19T13:49:03;2.22;;;1.67;;
43152;SDS011;28756;49.064;9.290;2022-07-19T13:51:50;5.55;;;1.80;;
43152;SDS011;28756;49.064;9.290;2022-07-19T13:54:17;4.00;;;1.70;;
43152;SDS011;28756;49.064;9.290;2022-07-19T13:56:43;1.75;;;1.48;;
43152;SDS011;28756;49.064;9.290;2022-07-19T13:59:08;4.93;;;2.58;;
43152;SDS011;28756;49.064;9.290;2022-07-19T14:01:34;4.80;;;1.90;;
43152;SDS011;28756;49.064;9.290;2022-07-19T14:04:01;5.10;;;1.67;;
43152;SDS011;28756;49.064;9.290;2022-07-19T14:06:30;2.53;;;1.73;;
43152;SDS011;28756;49.064;9.290;2022-07-19T14:08:59;2.13;;;1.83;;
43152;SDS011;28756;49.064;9.290;2022-07-19T14:11:25;5.97;;;2.10;;
43152;SDS011;28756;49.064;9.290;2022-07-19T14:13:51;2.10;;;1.80;;
43152;SDS011;28756;49.064;9.290;2022-07-19T14:16:17;5.03;;;2.15;;
43152;SDS011;28756;49.064;9.290;2022-07-19T14:18:43;2.65;;;1.80;;
43152;SDS011;28756;49.064;9.290;2022-07-19T14:21:11;1.75;;;1.52;;
43152;SDS011;28756;49.064;9.290;2022-07-19T14:24:02;3.70;;;1.88;;
43152;SDS011;28756;49.064;9.290;2022-07-19T14:26:28;4.03;;;1.95;;
43152;SDS011;28756;49.064;9.290;2022-07-19T14:28:59;2.58;;;2.00;;
43152;SDS011;28756;49.064;9.290;2022-07-19T14:31:25;4.03;;;2.13;;
43152;SDS011;28756;49.064;9.290;2022-07-19T14:33:51;3.05;;;1.80;;
43152;SDS011;28756;49.064;9.290;2022-07-19T14:36:17;2.40;;;1.80;;
43152;SDS011;28756;49.064;9.290;2022-07-19T14:38:44;2.97;;;1.92;;
43152;SDS011;28756;49.064;9.290;2022-07-19T14:41:09;4.60;;;2.08;;
43152;SDS011;28756;49.064;9.290;2022-07-19T14:43:39;2.30;;;1.67;;
43152;SDS011;28756;49.064;9.290;2022-07-19T14:46:05;2.90;;;1.90;;
43152;SDS011;28756;49.064;9.290;2022-07-19T14:48:32;2.88;;;2.10;;
43152;SDS011;28756;49.064;9.290;2022-07-19T14:50:58;4.03;;;1.83;;
43152;SDS011;28756;49.064;9.290;2022-07-19T14:53:23;2.97;;;2.03;;
43152;SDS011;28756;49.064;9.290;2022-07-19T14:55:49;2.40;;;1.75;;
43152;SDS011;28756;49.064;9.290;2022-07-19T14:58:15;6.10;;;2.00;;
43152;SDS011;28756;49.064;9.290;2022-07-19T15:00:41;3.28;;;1.80;;
43152;SDS011;28756;49.064;9.290;2022-07-19T15:03:07;3.95;;;2.13;;
43152;SDS011;28756;49.064;9.290;2022-07-19T15:05:32;3.17;;;1.40;;
43152;SDS011;28756;49.064;9.290;2022-07-19T15:07:58;2.90;;;1.40;;
43152;SDS011;28756;49.064;9.290;2022-07-19T15:10:24;4.88;;;1.98;;
43152;SDS011;28756;49.064;9.290;2022-07-19T15:12:50;3.20;;;2.20;;
43152;SDS011;28756;49.064;9.290;2022-07-19T15:15:17;4.43;;;1.90;;
43152;SDS011;28756;49.064;9.290;2022-07-19T15:17:47;2.50;;;1.98;;
43152;SDS011;28756;49.064;9.290;2022-07-19T15:20:13;3.92;;;2.13;;
43152;SDS011;28756;49.064;9.290;2022-07-19T15:22:42;4.13;;;2.20;;
43152;SDS011;28756;49.064;9.290;2022-07-19T15:25:09;3.47;;;2.10;;
43152;SDS011;28756;49.064;9.290;2022-07-19T15:27:34;5.22;;;1.90;;
43152;SDS011;28756;49.064;9.290;2022-07-19T15:30:01;6.63;;;2.05;;
43152;SDS011;28756;49.064;9.290;2022-07-19T15:32:27;3.80;;;2.20;;